< Typhoon 196303 1963 Season Typhoon 196305 >
Typhoon 196304 (SHIRLEY)
General InformationTrack Information on Google Maps || Disaster Info.ResourceGoogle EarthGE AnimationAtom FeedGeoJSON
Detalied Best Track (Time Zone = UTC)
Year Month Day Hour Lat. Long. Pressure (hPa) Wind (kt) Class Image Chart
1963 6 12 06 12.7 135.3 1008 0 2 -- Chart
1963 6 12 12 12.9 134.4 1006 0 2 -- Chart
1963 6 12 18 13.1 133.4 1004 0 2 -- Chart
1963 6 13 00 13.4 132.6 1002 0 2 -- Chart
1963 6 13 06 13.6 131.6 995 0 9 -- Chart
1963 6 13 12 13.7 131.6 995 0 9 -- Chart
1963 6 13 18 13.8 131.6 960 0 9 -- Chart
1963 6 14 00 14.2 131.7 950 0 9 -- Chart
1963 6 14 06 14.5 131.8 950 0 9 -- Chart
1963 6 14 12 14.6 131.7 950 0 9 -- Chart
1963 6 14 18 14.9 131.7 950 0 9 -- Chart
1963 6 15 00 15.4 131.6 945 0 9 -- Chart
1963 6 15 06 15.6 131.3 945 0 9 -- Chart
1963 6 15 12 16.1 130.7 945 0 9 -- Chart
1963 6 15 18 16.8 130.4 945 0 9 -- Chart
1963 6 16 00 17.5 130.0 935 0 9 -- Chart
1963 6 16 06 18.2 129.3 935 0 9 -- Chart
1963 6 16 12 19.0 128.6 935 0 9 -- Chart
1963 6 16 18 19.8 128.1 940 0 9 -- Chart
1963 6 17 00 20.6 127.5 945 0 9 -- Chart
1963 6 17 06 21.7 127.2 945 0 9 -- Chart
1963 6 17 12 22.8 126.7 950 0 9 -- Chart
1963 6 17 18 23.7 125.9 960 0 9 -- Chart
1963 6 18 00 24.9 125.3 960 0 9 -- Chart
1963 6 18 06 25.9 124.6 965 0 9 -- Chart
1963 6 18 12 26.8 124.4 965 0 9 -- Chart
1963 6 18 18 27.8 124.0 965 0 9 -- Chart
1963 6 19 00 29.0 123.7 970 0 9 -- Chart
1963 6 19 06 30.2 123.7 970 0 9 -- Chart
1963 6 19 12 31.5 124.6 975 0 9 -- Chart
1963 6 19 18 33.5 126.3 975 0 9 -- Chart
1963 6 20 00 35.7 128.9 990 0 9 -- Chart
1963 6 20 06 38.6 131.8 990 0 6 -- Chart
1963 6 20 12 41.5 134.9 990 0 6 -- Chart
1963 6 20 18 43.9 137.2 990 0 6 -- Chart
1963 6 21 00 46.0 139.0 990 0 6 -- Chart
1963 6 21 06 47.0 140.6 992 0 6 -- Chart
1963 6 21 12 46.7 143.4 996 0 6 -- Chart
1963 6 21 18 46.0 146.0 998 0 6 -- Chart
1963 6 22 00 45.1 148.9 998 0 6 -- Chart
1963 6 22 06 44.7 151.6 1000 0 6 -- Chart
1963 6 22 12 45.1 154.1 1000 0 6 -- Chart
1963 6 22 18 46.1 156.4 996 0 6 -- Chart
1963 6 23 00 47.2 158.2 994 0 6 -- Chart
1963 6 23 06 48.0 159.4 992 0 6 -- Chart
1963 6 23 12 48.9 160.5 994 0 6 -- Chart
1963 6 23 18 49.5 161.3 996 0 6 -- Chart
1963 6 24 00 50.0 162.1 996 0 6 -- Chart
1963 6 24 06 50.7 163.0 996 0 6 -- Chart
1963 6 24 12 51.5 164.6 996 0 6 -- Chart
1963 6 24 18 52.0 166.0 996 0 6 -- Chart
1963 6 25 00 52.9 168.6 992 0 6 -- Chart
1963 6 25 06 54.0 172.8 992 0 6 -- Chart
1963 6 25 12 55.0 176.5 992 0 6 -- Chart
1963 6 25 18 56.0 179.6 990 0 6 -- Chart
1963 6 26 00 56.5 181.0 990 0 6 -- Chart
Japan Meteorological Agency Best Track Data | Correction Date : 1991-07-16
< Typhoon 196303 1963 Season Typhoon 196305 >

Help